Time;durP1;ratioP1;P1;durP2;ratioP2;P2;SDS_P1;SDS_P2;PMS_P1;PMS_P2;Temp;Humidity;BMP_temperature;BMP_pressure;BME280_temperature;BME280_humidity;BME280_pressure;Samples;Min_cycle;Max_cycle;Signal;HPM_P1;HPM_P2
2022/10/04 00:00:38;;;;;;;6.20;2.47;;;;;;;11.51;62.13;96922.63;5043599;28;20084;-61
2022/10/04 00:03:21;;;;;;;3.85;1.85;;;;;;;11.62;61.87;96929.09;5043740;28;20486;-61
2022/10/04 00:05:52;;;;;;;3.83;1.80;;;;;;;11.64;61.73;96935.91;5044544;28;20124;-62
2022/10/04 00:08:40;;;;;;;4.00;2.00;;;;;;;10.79;62.55;96804.97;5045299;28;20483;-62
2022/10/04 00:11:15;;;;;;;2.78;2.05;;;;;;;11.20;62.72;96882.28;5045115;28;20084;-62
2022/10/04 00:13:49;;;;;;;5.88;2.38;;;;;;;11.11;63.20;96876.22;5043313;28;20524;-61
2022/10/04 00:16:48;;;;;;;;;;;;;;;11.49;63.66;96930.56;5045181;28;20136;-62
2022/10/04 00:19:14;;;;;;;3.15;1.65;;;;;;;11.56;64.14;96919.53;5021056;28;19929;-61
2022/10/04 00:21:51;;;;;;;3.30;1.75;;;;;;;11.43;64.03;96926.53;5043496;28;20052;-61
2022/10/04 00:24:29;;;;;;;3.35;1.73;;;;;;;11.44;64.88;96928.13;5043623;28;20132;-63
2022/10/04 00:27:29;;;;;;;2.90;1.92;;;;;;;11.47;64.27;96932.91;5042691;28;20048;-62
2022/10/04 00:30:01;;;;;;;2.05;1.67;;;;;;;11.48;64.03;96923.38;5032006;28;20565;-61
2022/10/04 00:33:05;;;;;;;4.82;1.77;;;;;;;11.44;63.99;96917.03;5043422;28;20140;-61
2022/10/04 00:35:32;;;;;;;4.13;1.55;;;;;;;11.38;63.24;96919.31;5044047;28;20155;-62
2022/10/04 00:38:16;;;;;;;5.43;1.80;;;;;;;11.44;62.80;96917.03;5045020;28;20127;-60
2022/10/04 00:41:00;;;;;;;5.93;1.67;;;;;;;11.50;62.63;96926.59;5042824;28;20439;-60
2022/10/04 00:43:46;;;;;;;5.13;2.00;;;;;;;11.47;62.92;96928.16;5044636;28;20130;-62
2022/10/04 00:46:22;;;;;;;1.63;1.50;;;;;;;11.48;62.45;96917.84;5044323;28;20102;-61
2022/10/04 00:48:54;;;;;;;5.22;1.75;;;;;;;11.24;62.12;96879.56;5044094;28;20106;-62
2022/10/04 00:51:43;;;;;;;5.63;1.60;;;;;;;11.40;62.42;96927.25;5044326;28;20064;-61
2022/10/04 00:54:09;;;;;;;2.60;1.63;;;;;;;11.34;62.98;96924.03;5044324;28;20136;-63
2022/10/04 00:56:45;;;;;;;1.77;1.35;;;;;;;11.31;62.46;96918.44;5044355;28;20129;-62
2022/10/04 00:59:32;;;;;;;3.22;1.80;;;;;;;11.21;63.02;96913.56;5044005;28;20057;-62
2022/10/04 01:02:17;;;;;;;4.05;1.58;;;;;;;11.26;62.50;96921.53;5044393;28;20094;-64
2022/10/04 01:05:08;;;;;;;2.30;1.40;;;;;;;11.28;63.29;96913.66;5042465;28;20092;-63
2022/10/04 01:07:39;;;;;;;1.75;1.63;;;;;;;11.13;64.21;96923.75;5044228;28;20085;-62
2022/10/04 01:10:30;;;;;;;2.95;1.73;;;;;;;11.09;64.03;96933.22;5043907;28;20084;-61
2022/10/04 01:13:06;;;;;;;3.85;1.70;;;;;;;11.15;63.22;96934.47;5044364;28;20565;-61
2022/10/04 01:16:14;;;;;;;3.10;1.60;;;;;;;11.00;64.31;96929.94;5043636;28;20287;-62
2022/10/04 01:18:42;;;;;;;2.55;1.58;;;;;;;11.00;64.60;96935.47;5020879;28;20065;-61
2022/10/04 01:21:20;;;;;;;5.55;1.60;;;;;;;11.02;64.18;96944.22;5021259;28;20128;-61
2022/10/04 01:23:51;;;;;;;7.85;1.92;;;;;;;10.59;66.07;96954.66;5024343;28;20570;-62
2022/10/04 01:26:33;;;;;;;2.88;1.60;;;;;;;10.12;67.74;96957.06;5044159;28;20154;-61
2022/10/04 01:29:27;;;;;;;6.20;1.90;;;;;;;10.14;68.73;96954.75;5042502;28;20053;-63
2022/10/04 01:31:56;;;;;;;5.38;2.00;;;;;;;10.24;68.65;96948.56;5043601;28;20139;-61
2022/10/04 01:34:26;;;;;;;5.05;2.58;;;;;;;10.20;68.80;96924.75;5042744;28;20067;-62
2022/10/04 01:36:58;;;;;;;4.40;1.83;;;;;;;10.27;68.87;96942.31;5042428;28;20110;-61
2022/10/04 01:39:27;;;;;;;3.15;1.63;;;;;;;10.16;68.97;96946.06;5042919;28;20573;-61
2022/10/04 01:42:08;;;;;;;3.75;1.90;;;;;;;9.91;67.98;96906.84;5047441;28;20104;-61
2022/10/04 01:45:07;;;;;;;3.45;1.40;;;;;;;10.20;68.22;96956.03;5047589;28;20531;-61
2022/10/04 01:47:39;;;;;;;2.53;1.70;;;;;;;10.19;68.35;96957.19;5038229;28;20065;-61
2022/10/04 01:50:19;;;;;;;2.55;1.45;;;;;;;10.24;67.88;96959.63;5047424;28;20052;-60
2022/10/04 01:53:27;;;;;;;2.88;1.60;;;;;;;10.16;68.69;96960.69;5047948;28;20159;-62
2022/10/04 01:56:05;;;;;;;8.80;2.00;;;;;;;9.86;68.60;96917.44;5024298;28;20139;-62
2022/10/04 01:58:57;;;;;;;4.63;1.73;;;;;;;9.91;69.43;96950.34;5042908;28;20586;-62
2022/10/04 02:01:57;;;;;;;4.30;1.60;;;;;;;10.18;69.79;96972.19;5047381;28;20076;-62
2022/10/04 02:04:31;;;;;;;4.22;1.60;;;;;;;10.22;69.52;96972.25;5045672;28;20512;-61
2022/10/04 02:07:00;;;;;;;3.83;1.80;;;;;;;10.09;69.46;96981.91;5045480;28;20061;-61
2022/10/04 02:09:39;;;;;;;3.75;1.50;;;;;;;10.10;70.18;96987.06;5047227;28;20072;-62
2022/10/04 02:12:06;;;;;;;4.68;1.58;;;;;;;9.87;70.44;96936.44;5047230;28;20092;-62
2022/10/04 02:14:34;;;;;;;6.10;1.98;;;;;;;9.93;70.01;96979.22;5046985;28;20100;-62
2022/10/04 02:17:09;;;;;;;6.68;1.60;;;;;;;10.02;70.03;96979.78;5047151;28;20128;-63
2022/10/04 02:19:42;;;;;;;6.15;2.10;;;;;;;9.99;70.02;96986.06;5047021;28;20080;-62
2022/10/04 02:22:10;;;;;;;9.93;2.72;;;;;;;9.49;71.25;96944.81;5047179;28;20136;-61
2022/10/04 02:24:41;;;;;;;7.82;3.10;;;;;;;9.73;71.53;96980.44;5046657;28;20080;-62
2022/10/04 02:27:08;;;;;;;8.25;3.17;;;;;;;9.39;72.22;96928.78;5045382;28;20084;-62
2022/10/04 02:29:35;;;;;;;3.15;1.65;;;;;;;9.24;72.49;96910.34;5045269;28;20088;-62
2022/10/04 02:34:50;;;;;;;5.03;1.83;;;;;;;9.27;72.16;96923.44;5046609;28;20084;-62
2022/10/04 02:37:25;;;;;;;3.00;1.80;;;;;;;8.91;72.22;96868.63;5045191;28;20601;-60
2022/10/04 02:39:59;;;;;;;3.47;1.90;;;;;;;9.54;73.07;96974.94;5046158;28;20491;-61
2022/10/04 02:42:54;;;;;;;2.50;1.58;;;;;;;9.56;73.44;96978.13;5046364;28;20057;-63
2022/10/04 02:45:32;;;;;;;3.05;1.85;;;;;;;9.52;73.09;96982.78;5046495;28;20147;-61
2022/10/04 02:48:15;;;;;;;2.95;1.50;;;;;;;9.40;74.01;96987.66;5046570;28;20063;-61
2022/10/04 02:50:48;;;;;;;;;;;;;;;9.46;72.54;96989.78;5044944;28;20052;-62
2022/10/04 02:53:25;;;;;;;5.05;1.90;;;;;;;8.76;74.37;96938.53;5046409;28;19925;-61
2022/10/04 02:55:54;;;;;;;9.77;3.38;;;;;;;9.10;75.12;96990.19;5038497;28;20056;-62
2022/10/04 02:58:23;;;;;;;4.65;1.90;;;;;;;8.94;74.60;96950.78;5056220;28;20093;-61
2022/10/04 03:00:59;;;;;;;6.18;2.25;;;;;;;9.16;75.68;96986.78;5045869;28;20110;-62
2022/10/04 03:03:33;;;;;;;6.35;2.40;;;;;;;9.23;75.34;96985.34;5046042;28;20500;-61
2022/10/04 03:06:07;;;;;;;7.28;2.83;;;;;;;9.26;74.86;96990.94;5045699;28;20063;-60
2022/10/04 03:08:57;;;;;;;6.85;2.60;;;;;;;9.08;75.57;96998.03;5044505;28;20049;-63
2022/10/04 03:11:29;;;;;;;4.78;1.58;;;;;;;9.04;75.36;97005.47;5044554;28;20053;-62
2022/10/04 03:13:59;;;;;;;2.08;1.40;;;;;;;8.95;74.54;96997.38;5045752;28;20589;-62
2022/10/04 03:16:33;;;;;;;2.38;1.70;;;;;;;8.56;75.08;96957.03;5045923;28;20045;-62
2022/10/04 03:18:59;;;;;;;2.80;1.83;;;;;;;8.91;75.55;97006.75;5044683;28;20087;-63
2022/10/04 03:21:26;;;;;;;4.35;1.55;;;;;;;8.09;76.98;96903.03;5044254;28;20132;-62
2022/10/04 03:23:53;;;;;;;9.38;3.13;;;;;;;8.37;77.13;97008.59;5045964;28;20520;-62
2022/10/04 03:26:37;;;;;;;8.60;2.83;;;;;;;8.66;77.49;97021.94;5045353;28;20147;-62
2022/10/04 03:29:09;;;;;;;8.10;2.10;;;;;;;8.72;78.42;97026.03;5045537;28;20056;-60
2022/10/04 03:31:48;;;;;;;5.32;1.67;;;;;;;8.71;78.29;97018.91;5045611;28;20057;-60
2022/10/04 03:34:19;;;;;;;1.75;1.40;;;;;;;8.17;77.38;96921.34;5045389;28;20547;-61
2022/10/04 03:36:48;;;;;;;4.13;2.28;;;;;;;8.87;77.57;97028.75;5045405;28;20707;-61
2022/10/04 03:39:44;;;;;;;5.35;2.20;;;;;;;8.95;76.97;97024.19;5045774;28;20132;-61
2022/10/04 03:42:13;;;;;;;5.93;2.28;;;;;;;8.79;77.23;97026.16;5056704;28;20107;-60
2022/10/04 03:44:42;;;;;;;3.53;1.85;;;;;;;8.72;77.45;97026.03;5045427;28;20137;-61
2022/10/04 03:47:11;;;;;;;5.35;2.28;;;;;;;8.56;78.46;97033.53;5045373;28;20060;-61
2022/10/04 03:49:40;;;;;;;5.22;2.22;;;;;;;8.61;78.51;97022.22;5045270;28;20132;-64
2022/10/04 03:52:15;;;;;;;5.57;2.40;;;;;;;8.64;78.36;97018.72;5043604;28;20080;-63
2022/10/04 03:54:42;;;;;;;3.22;1.70;;;;;;;8.49;79.38;97033.31;5045250;28;20350;-61
2022/10/04 03:57:11;;;;;;;5.70;2.28;;;;;;;8.55;79.33;97020.88;5045368;28;20060;-62
2022/10/04 03:59:38;;;;;;;7.15;2.10;;;;;;;8.23;79.20;96981.47;5043725;28;20092;-61
2022/10/04 04:02:14;;;;;;;4.43;3.00;;;;;;;8.64;78.96;97024.25;5044079;28;20095;-63
2022/10/04 04:04:49;;;;;;;5.03;2.20;;;;;;;8.70;79.16;97029.16;5045089;28;20087;-61
2022/10/04 04:07:34;;;;;;;3.72;1.73;;;;;;;8.67;79.37;97029.06;5044988;28;20052;-62
2022/10/04 04:10:12;;;;;;;1.90;1.40;;;;;;;8.74;78.70;97034.75;5044884;28;20132;-61
2022/10/04 04:12:52;;;;;;;4.75;2.08;;;;;;;8.76;79.10;97032.41;5045104;28;20053;-61
2022/10/04 04:15:18;;;;;;;2.53;1.52;;;;;;;6.96;78.42;96734.84;5043625;28;20143;-60
2022/10/04 04:17:49;;;;;;;7.90;1.75;;;;;;;8.46;77.86;96956.75;5044983;28;20088;-63
2022/10/04 04:20:22;;;;;;;2.42;1.60;;;;;;;8.63;78.72;96984.00;5044514;28;20475;-61
2022/10/04 04:23:23;;;;;;;2.50;1.90;;;;;;;8.97;78.43;97049.50;5045155;28;20053;-60
2022/10/04 04:25:56;;;;;;;6.03;2.08;;;;;;;8.16;78.52;96920.53;5044191;28;20057;-60
2022/10/04 04:28:29;;;;;;;4.15;2.30;;;;;;;9.14;78.06;97049.91;5043229;28;20088;-61
2022/10/04 04:31:03;;;;;;;9.50;2.75;;;;;;;8.79;77.74;97026.16;5044225;28;20408;-61
2022/10/04 04:33:36;;;;;;;3.28;1.73;;;;;;;9.14;77.58;97057.38;5043064;28;20064;-61
2022/10/04 04:36:11;;;;;;;3.88;2.00;;;;;;;9.23;77.03;97055.22;5044168;28;20111;-63
2022/10/04 04:41:25;;;;;;;6.80;2.28;;;;;;;9.30;77.14;97060.09;5044454;28;20136;-63
2022/10/04 04:43:52;;;;;;;4.00;1.95;;;;;;;8.98;76.28;97059.38;5044504;28;20064;-63
2022/10/04 04:46:20;;;;;;;5.97;3.65;;;;;;;9.34;75.68;97063.75;5042672;28;20536;-62
2022/10/04 04:49:01;;;;;;;6.18;4.38;;;;;;;9.30;77.60;97073.91;5044068;28;20122;-63
2022/10/04 04:51:30;;;;;;;6.47;3.45;;;;;;;9.33;76.91;97078.72;5044089;28;20063;-61
2022/10/04 04:54:01;;;;;;;4.38;3.17;;;;;;;8.79;76.37;97004.06;5043809;28;20088;-60
2022/10/04 04:56:29;;;;;;;3.03;2.35;;;;;;;9.53;75.63;97089.44;5044058;28;20110;-61
2022/10/04 04:59:01;;;;;;;9.82;2.20;;;;;;;9.66;75.33;97093.69;5044272;28;20124;-62
2022/10/04 05:01:33;;;;;;;6.47;1.90;;;;;;;9.83;75.74;97093.25;5043998;28;20496;-61
2022/10/04 05:04:11;;;;;;;5.20;2.10;;;;;;;9.90;75.50;97096.16;5042491;28;20044;-63
2022/10/04 05:06:40;;;;;;;3.65;2.00;;;;;;;9.88;74.97;97084.66;5042197;28;20091;-63
2022/10/04 05:09:30;;;;;;;3.85;1.95;;;;;;;10.13;73.99;97097.03;5043639;28;20080;-62
2022/10/04 05:12:19;;;;;;;2.65;1.90;;;;;;;10.20;73.54;97096.38;5044091;28;20057;-65
2022/10/04 05:14:51;;;;;;;4.32;2.13;;;;;;;10.42;73.22;97090.88;5047212;28;20131;-62
2022/10/04 05:17:22;;;;;;;10.57;5.07;;;;;;;10.59;72.50;97114.53;5048027;28;20095;-60
2022/10/04 05:19:50;;;;;;;9.93;3.65;;;;;;;10.72;72.18;97107.63;5048361;28;20052;-61
2022/10/04 05:22:21;;;;;;;3.13;1.75;;;;;;;10.35;71.23;97043.66;5046485;28;20132;-62
2022/10/04 05:24:55;;;;;;;3.55;1.70;;;;;;;10.59;70.93;97073.78;5046368;28;20079;-61
2022/10/04 05:27:44;;;;;;;4.72;2.13;;;;;;;10.98;70.78;97127.09;5048036;28;20443;-61
2022/10/04 05:30:22;;;;;;;4.80;1.90;;;;;;;10.62;70.59;97042.56;5047557;28;20175;-62
2022/10/04 05:33:07;;;;;;;6.82;2.08;;;;;;;11.24;70.30;97118.78;5047934;28;20306;-62
2022/10/04 05:36:17;;;;;;;5.18;2.00;;;;;;;11.32;69.73;97130.78;5046576;28;20503;-61
2022/10/04 05:38:56;;;;;;;4.78;2.72;;;;;;;11.51;69.55;97128.72;5047705;28;20146;-63
2022/10/04 05:41:43;;;;;;;8.13;2.20;;;;;;;11.49;69.90;97114.41;5047844;28;20133;-61
2022/10/04 05:44:41;;;;;;;10.07;3.10;;;;;;;11.75;69.40;97127.50;5047548;28;20052;-61
2022/10/04 05:47:13;;;;;;;6.78;2.50;;;;;;;11.44;69.63;97083.44;5043822;28;20084;-60
2022/10/04 05:49:43;;;;;;;13.63;3.08;;;;;;;11.73;68.64;97063.22;5042764;28;20045;-67
2022/10/04 05:52:26;;;;;;;6.13;2.40;;;;;;;12.19;67.93;97114.56;5046559;28;20110;-62
2022/10/04 05:55:11;;;;;;;3.10;2.42;;;;;;;12.43;67.66;97116.84;5045900;28;20084;-61
2022/10/04 05:57:56;;;;;;;3.28;2.25;;;;;;;12.44;67.38;97093.41;5045974;28;20057;-59
2022/10/04 06:00:46;;;;;;;3.85;1.98;;;;;;;12.57;65.66;97053.06;5047467;28;20097;-59
2022/10/04 06:03:46;;;;;;;3.30;2.05;;;;;;;13.07;65.34;97124.63;5047395;28;20525;-62
2022/10/04 06:06:44;;;;;;;4.90;2.40;;;;;;;13.19;64.14;97129.91;5045867;28;20084;-62
2022/10/04 06:09:40;;;;;;;4.60;2.70;;;;;;;13.43;62.83;97146.00;5046502;28;20080;-66
2022/10/04 06:12:06;;;;;;;4.72;3.08;;;;;;;13.37;62.47;97149.53;5044006;28;20057;-67
2022/10/04 06:14:57;;;;;;;8.30;3.22;;;;;;;13.41;63.58;97153.94;5046160;28;20114;-64
2022/10/04 06:17:32;;;;;;;5.25;2.80;;;;;;;13.36;64.58;97156.25;5046862;28;20512;-62
2022/10/04 06:20:18;;;;;;;5.25;2.15;;;;;;;13.36;65.53;97157.06;5044819;28;20533;-61
2022/10/04 06:22:47;;;;;;;1.95;1.80;;;;;;;13.79;63.90;97162.94;5046677;28;20085;-64
2022/10/04 06:25:26;;;;;;;4.68;1.80;;;;;;;14.08;61.12;97164.69;5045536;28;20049;-62
2022/10/04 06:28:16;;;;;;;2.38;2.08;;;;;;;14.40;60.66;97160.13;5046542;28;20190;-60
2022/10/04 06:31:07;;;;;;;4.50;2.15;;;;;;;14.73;59.16;97162.63;5037973;28;20152;-61
2022/10/04 06:33:37;;;;;;;5.80;3.58;;;;;;;14.91;58.83;97163.44;5046346;28;20083;-66
2022/10/04 06:36:26;;;;;;;4.40;2.63;;;;;;;14.90;57.33;97167.44;5045193;28;20053;-63
2022/10/04 06:39:16;;;;;;;3.53;2.03;;;;;;;15.05;57.11;97169.03;5045904;28;20053;-62
2022/10/04 06:42:01;;;;;;;2.72;2.30;;;;;;;15.13;56.61;97177.03;5045803;28;20122;-67
2022/10/04 06:44:37;;;;;;;2.38;2.03;;;;;;;15.50;54.82;97176.69;5046005;28;20603;-67
2022/10/04 06:47:37;;;;;;;4.60;2.13;;;;;;;15.77;54.23;97175.09;5044428;28;20053;-64
2022/10/04 06:50:32;;;;;;;5.30;2.50;;;;;;;16.00;52.99;97169.84;5045796;28;20114;-62
2022/10/04 06:53:23;;;;;;;2.45;2.25;;;;;;;16.25;52.91;97183.75;5046208;28;20069;-64
2022/10/04 06:56:08;;;;;;;2.55;2.28;;;;;;;16.42;50.95;97185.72;5045830;28;20087;-69
2022/10/04 06:58:43;;;;;;;2.85;2.65;;;;;;;16.63;51.13;97192.03;5045733;28;20605;-62
2022/10/04 07:01:25;;;;;;;11.35;4.65;;;;;;;16.84;49.53;97185.53;5045460;28;20466;-62
2022/10/04 07:04:05;;;;;;;3.00;2.70;;;;;;;17.27;48.38;97180.47;5044827;28;20057;-61
2022/10/04 07:10:00;;;;;;;2.28;2.13;;;;;;;16.45;47.59;97061.88;5043295;28;20098;-67
2022/10/04 07:12:28;;;;;;;2.60;2.40;;;;;;;16.99;47.75;97124.69;5044686;28;20114;-69
2022/10/04 07:14:59;;;;;;;4.68;2.97;;;;;;;17.52;48.34;97192.31;5044204;28;20125;-67
2022/10/04 07:17:37;;;;;;;3.65;2.30;;;;;;;17.58;47.15;97157.06;5043352;28;20080;-66
2022/10/04 07:20:13;;;;;;;6.22;2.65;;;;;;;18.18;46.28;97202.13;5043563;28;20508;-67
2022/10/04 07:22:50;;;;;;;15.80;4.07;;;;;;;17.43;46.81;97138.75;5043934;28;20500;-71
2022/10/04 07:25:23;;;;;;;3.90;2.30;;;;;;;18.14;45.58;97195.78;5044499;28;20111;-73
2022/10/04 07:30:47;;;;;;;7.80;4.40;;;;;;;17.50;47.37;97172.31;5044866;28;20618;-65
2022/10/04 07:33:19;;;;;;;6.22;3.03;;;;;;;17.09;47.40;97163.00;5045439;28;20049;-65
2022/10/04 07:35:50;;;;;;;2.65;2.35;;;;;;;17.27;47.45;97152.47;5043847;28;20056;-60
2022/10/04 07:38:25;;;;;;;2.88;2.63;;;;;;;17.59;47.87;97186.69;5045452;28;20049;-67
2022/10/04 07:40:57;;;;;;;2.85;2.30;;;;;;;17.48;47.86;97191.56;5045113;28;20127;-60
2022/10/04 07:43:29;;;;;;;2.97;2.35;;;;;;;16.72;47.93;97098.50;5045128;28;20537;-62
2022/10/04 07:46:12;;;;;;;2.80;2.30;;;;;;;17.37;47.68;97168.41;5045038;28;20115;-60
2022/10/04 07:48:40;;;;;;;;;;;;;;;17.63;47.89;97205.03;5045795;28;20053;-67
2022/10/04 07:51:40;;;;;;;5.20;3.10;;;;;;;17.67;47.12;97216.22;5045113;28;20299;-62
2022/10/04 07:54:15;;;;;;;3.97;2.35;;;;;;;17.65;47.14;97201.84;5040429;28;20431;-65
2022/10/04 07:56:55;;;;;;;4.47;2.83;;;;;;;17.65;46.77;97213.03;5044612;28;20118;-67
2022/10/04 07:59:47;;;;;;;2.85;2.50;;;;;;;17.69;47.13;97219.41;5043408;28;20515;-64
2022/10/04 08:02:22;;;;;;;3.83;3.03;;;;;;;17.80;47.22;97211.69;5044923;28;20488;-66
2022/10/04 08:05:11;;;;;;;8.48;3.58;;;;;;;17.81;47.39;97216.88;5044719;28;20077;-58
2022/10/04 08:08:04;;;;;;;7.03;3.38;;;;;;;17.50;47.00;97206.75;5044976;28;20124;-66
2022/10/04 08:11:05;;;;;;;3.80;3.40;;;;;;;17.56;47.39;97221.13;5038133;28;20053;-62
2022/10/04 08:14:07;;;;;;;2.85;2.65;;;;;;;17.21;48.81;97224.13;5042664;28;20060;-63
2022/10/04 08:16:47;;;;;;;3.10;2.75;;;;;;;17.51;48.67;97218.75;5043855;28;20060;-67
2022/10/04 08:20:10;;;;;;;4.95;4.10;;;;;;;17.21;49.60;97224.13;5044504;28;20141;-62
2022/10/04 08:22:40;;;;;;;2.58;2.45;;;;;;;16.98;50.24;97240.63;5035237;28;20087;-66
2022/10/04 08:25:37;;;;;;;3.72;3.03;;;;;;;16.21;52.38;97239.69;5044237;28;20068;-61
2022/10/04 08:31:23;;;;;;;2.38;2.17;;;;;;;16.04;51.89;97248.91;5044222;28;20045;-68
2022/10/04 08:33:56;;;;;;;3.55;2.65;;;;;;;16.22;52.03;97244.06;5044250;28;20053;-70
2022/10/04 08:36:52;;;;;;;3.50;2.35;;;;;;;16.83;49.95;97250.31;5042490;28;20087;-66
2022/10/04 08:39:28;;;;;;;3.40;2.20;;;;;;;16.52;50.31;97249.19;5044240;28;20056;-63
2022/10/04 08:42:03;;;;;;;5.57;2.53;;;;;;;16.26;50.53;97244.88;5043856;28;20045;-64
2022/10/04 08:45:01;;;;;;;2.50;2.30;;;;;;;15.43;51.56;97168.31;5043945;28;20048;-65
2022/10/04 08:48:23;;;;;;;3.75;2.85;;;;;;;16.25;51.50;97239.66;5043871;28;20427;-68
2022/10/04 08:51:24;;;;;;;3.05;2.55;;;;;;;16.49;50.78;97252.81;5034994;28;20052;-66
2022/10/04 08:54:02;;;;;;;2.67;2.28;;;;;;;16.65;49.81;97250.38;5043730;28;20106;-64
2022/10/04 08:56:50;;;;;;;2.65;2.33;;;;;;;16.98;49.37;97263.03;5043845;28;20474;-67
2022/10/04 08:59:17;;;;;;;2.88;2.67;;;;;;;17.30;48.97;97244.88;5043895;28;20076;-67
2022/10/04 09:02:18;;;;;;;2.53;2.33;;;;;;;17.72;48.07;97258.59;5043986;28;20118;-63
2022/10/04 09:05:06;;;;;;;2.70;2.53;;;;;;;17.61;47.72;97234.66;5043591;28;20057;-62
2022/10/04 09:08:15;;;;;;;3.05;2.72;;;;;;;17.19;47.04;97209.72;5043892;28;20114;-63
2022/10/04 09:11:04;;;;;;;2.65;2.45;;;;;;;17.60;46.69;97273.13;5043525;28;20049;-67
2022/10/04 09:14:08;;;;;;;2.50;2.30;;;;;;;17.41;47.58;97259.59;5043494;28;20063;-65
2022/10/04 09:16:47;;;;;;;3.28;2.97;;;;;;;17.92;47.05;97256.06;5043543;28;20088;-63
2022/10/04 09:19:20;;;;;;;3.90;3.08;;;;;;;17.55;47.07;97269.94;5043825;28;20346;-62
2022/10/04 09:21:56;;;;;;;2.55;2.38;;;;;;;17.97;46.58;97272.44;5041887;28;20490;-63
2022/10/04 09:24:51;;;;;;;3.17;2.85;;;;;;;18.32;46.06;97258.06;5041881;28;20511;-65
2022/10/04 09:27:42;;;;;;;4.25;2.70;;;;;;;18.64;44.95;97261.38;5043640;28;20091;-63
2022/10/04 09:30:29;;;;;;;5.18;2.65;;;;;;;18.44;44.17;97190.28;5043339;28;20066;-64
2022/10/04 09:33:15;;;;;;;3.05;2.40;;;;;;;18.24;44.33;97262.16;5043383;28;20092;-65
2022/10/04 09:36:15;;;;;;;2.40;2.30;;;;;;;17.89;45.59;97262.50;5043481;28;20569;-65
2022/10/04 09:39:00;;;;;;;7.22;2.50;;;;;;;17.91;45.08;97234.81;5042218;28;20410;-66
2022/10/04 09:42:15;;;;;;;2.85;2.40;;;;;;;17.42;46.47;97268.81;5043123;28;20056;-67
2022/10/04 09:44:56;;;;;;;8.25;2.80;;;;;;;16.69;46.35;97121.69;5043755;28;20049;-63
2022/10/04 09:47:50;;;;;;;3.40;3.10;;;;;;;17.70;46.19;97272.22;5041873;28;20048;-64
2022/10/04 09:50:51;;;;;;;5.93;3.92;;;;;;;17.85;44.73;97275.72;5043284;28;20105;-64
2022/10/04 09:53:19;;;;;;;3.08;2.80;;;;;;;17.90;45.13;97266.88;5041913;28;20186;-64
2022/10/04 09:56:13;;;;;;;2.67;2.40;;;;;;;17.51;46.05;97238.34;5043510;28;20181;-65
2022/10/04 09:59:07;;;;;;;5.28;2.60;;;;;;;17.14;46.12;97128.97;5043680;28;20456;-63
2022/10/04 10:01:39;;;;;;;;;;;;;;;17.70;46.76;97271.44;5046814;28;20081;-61
2022/10/04 10:04:21;;;;;;;3.28;2.60;;;;;;;17.58;47.04;97257.91;5045810;28;20446;-62
2022/10/04 10:07:03;;;;;;;3.45;2.40;;;;;;;17.35;47.60;97266.84;5045521;28;20053;-60
2022/10/04 10:16:17;;;;;;;3.33;2.70;;;;;;;17.76;46.62;97253.78;5046628;28;20583;-63
2022/10/04 10:19:10;;;;;;;8.73;3.33;;;;;;;17.94;46.40;97248.03;5023588;28;20057;-63
2022/10/04 10:21:48;;;;;;;4.72;3.40;;;;;;;18.55;45.12;97195.75;5046383;28;20146;-62
2022/10/04 10:24:33;;;;;;;3.38;3.00;;;;;;;18.79;43.94;97254.41;5045102;28;20141;-61
2022/10/04 10:27:12;;;;;;;3.33;2.70;;;;;;;18.23;43.38;97243.75;5045007;28;20122;-67
2022/10/04 10:30:03;;;;;;;3.20;3.00;;;;;;;17.59;44.72;97153.06;5046668;28;20111;-65
2022/10/04 10:32:41;;;;;;;3.17;2.75;;;;;;;17.79;45.00;97266.97;5044603;28;20053;-68
2022/10/04 10:35:42;;;;;;;3.83;2.72;;;;;;;17.59;45.96;97259.50;5044220;28;20060;-67
2022/10/04 10:38:31;;;;;;;2.35;2.25;;;;;;;18.24;43.54;97256.53;5046219;28;20083;-66
2022/10/04 10:41:26;;;;;;;2.58;2.30;;;;;;;18.50;42.98;97253.13;5044569;28;20056;-68
2022/10/04 10:44:08;;;;;;;3.03;2.78;;;;;;;18.76;41.91;97235.56;5044604;28;20114;-72
2022/10/04 10:47:11;;;;;;;2.80;2.65;;;;;;;19.16;41.71;97245.09;5045893;28;20435;-71
2022/10/04 10:49:52;;;;;;;2.58;2.38;;;;;;;19.55;41.23;97245.38;5045875;28;20511;-67
2022/10/04 10:52:27;;;;;;;3.00;2.63;;;;;;;19.86;40.75;97243.28;5045850;28;20114;-66
2022/10/04 10:55:13;;;;;;;15.10;7.38;;;;;;;19.36;41.00;97249.66;5043539;28;20088;-66
2022/10/04 10:58:15;;;;;;;9.98;5.28;;;;;;;19.11;41.08;97193.00;5044406;28;20137;-67
2022/10/04 11:01:27;;;;;;;3.67;3.30;;;;;;;19.68;40.65;97248.41;5043944;28;20081;-64
2022/10/04 11:04:18;;;;;;;3.28;3.08;;;;;;;19.65;40.61;97250.03;5037026;28;20064;-63
2022/10/04 11:07:12;;;;;;;4.43;3.15;;;;;;;19.52;41.12;97252.63;5045333;28;20160;-67
2022/10/04 11:10:16;;;;;;;4.45;3.83;;;;;;;19.49;40.50;97252.69;5025693;28;20136;-68
2022/10/04 11:13:08;;;;;;;3.42;3.13;;;;;;;19.36;40.48;97255.28;5023873;28;20099;-63
2022/10/04 11:16:12;;;;;;;2.25;2.15;;;;;;;19.20;39.95;97257.09;5024957;28;20080;-62
2022/10/04 11:19:09;;;;;;;3.40;2.15;;;;;;;19.26;41.03;97250.59;5024309;28;20057;-60
2022/10/04 11:22:06;;;;;;;3.70;2.50;;;;;;;19.80;39.90;97245.00;5015400;28;20432;-61
2022/10/04 11:25:10;;;;;;;2.78;2.30;;;;;;;20.56;38.98;97242.88;5025517;28;20528;-64
2022/10/04 11:28:12;;;;;;;3.28;2.60;;;;;;;19.38;37.51;97061.00;5022667;28;20056;-62
2022/10/04 11:31:05;;;;;;;3.85;3.45;;;;;;;20.93;37.53;97197.47;5025008;28;20131;-64
2022/10/04 11:33:53;;;;;;;2.92;2.72;;;;;;;21.37;36.72;97235.56;5024007;28;20055;-65
2022/10/04 11:36:39;;;;;;;3.17;2.97;;;;;;;21.54;36.67;97245.69;5023616;28;20052;-61
2022/10/04 11:39:05;;;;;;;3.33;3.13;;;;;;;21.12;36.73;97243.78;5024922;28;20049;-61
2022/10/04 11:41:46;;;;;;;3.13;2.92;;;;;;;21.02;36.81;97250.44;5025094;28;20057;-60
2022/10/04 11:44:25;;;;;;;2.58;2.47;;;;;;;20.83;36.11;97251.22;5025015;28;20520;-61
2022/10/04 11:47:07;;;;;;;2.78;2.67;;;;;;;20.28;36.51;97242.63;5025105;28;21567;-66
2022/10/04 11:49:55;;;;;;;2.60;2.40;;;;;;;19.51;38.14;97251.06;5025017;28;20049;-63
2022/10/04 11:52:53;;;;;;;2.88;2.67;;;;;;;18.78;39.60;97261.22;5024557;28;20574;-65
2022/10/04 11:55:56;;;;;;;4.80;3.22;;;;;;;19.24;39.57;97264.25;5023359;28;20115;-61
2022/10/04 11:58:41;;;;;;;2.85;2.65;;;;;;;19.87;38.61;97256.13;5025159;28;20061;-62
2022/10/04 12:01:26;;;;;;;2.25;2.15;;;;;;;19.63;37.64;97260.13;5023652;28;20139;-67
2022/10/04 12:04:05;;;;;;;2.40;2.30;;;;;;;20.27;37.06;97257.88;5023000;28;20092;-63
2022/10/04 12:06:32;;;;;;;3.20;2.90;;;;;;;20.48;36.72;97260.31;5024868;28;20061;-62
2022/10/04 12:09:36;;;;;;;2.33;2.22;;;;;;;20.94;35.37;97257.41;5042477;28;20107;-62
2022/10/04 12:12:39;;;;;;;2.30;2.20;;;;;;;21.26;34.99;97245.50;5044339;28;20110;-63
2022/10/04 12:15:07;;;;;;;6.10;3.83;;;;;;;21.38;35.76;97254.09;5044500;28;20095;-60
2022/10/04 12:18:20;;;;;;;3.03;2.83;;;;;;;20.84;35.71;97202.09;5044799;28;20424;-66
2022/10/04 12:20:53;;;;;;;2.90;2.70;;;;;;;21.02;36.39;97242.78;5044801;28;20095;-62
2022/10/04 12:23:44;;;;;;;2.83;2.63;;;;;;;19.83;37.38;97261.00;5044234;28;20084;-67
2022/10/04 12:26:44;;;;;;;2.80;2.50;;;;;;;18.49;39.17;97184.22;5043330;28;20057;-60
2022/10/04 12:29:30;;;;;;;2.35;2.25;;;;;;;18.53;39.71;97262.69;5043372;28;20049;-68
2022/10/04 12:32:09;;;;;;;2.50;2.28;;;;;;;18.17;40.00;97222.97;5042985;28;20451;-59
2022/10/04 12:34:45;;;;;;;6.97;2.40;;;;;;;18.40;39.99;97259.63;5043899;28;20156;-59
2022/10/04 12:37:12;;;;;;;2.50;2.30;;;;;;;18.06;41.19;97262.34;5044565;28;20139;-71
2022/10/04 12:40:21;;;;;;;2.70;2.50;;;;;;;17.98;41.62;97271.22;5042991;28;20518;-71
2022/10/04 12:43:21;;;;;;;3.70;2.78;;;;;;;17.55;42.26;97269.94;5039434;28;20065;-68
2022/10/04 12:46:05;;;;;;;2.67;2.47;;;;;;;17.97;42.05;97273.22;5043080;28;20542;-60
2022/10/04 12:48:54;;;;;;;2.20;1.90;;;;;;;17.34;42.47;97270.06;5043924;28;20060;-67
2022/10/04 12:51:33;;;;;;;2.15;2.00;;;;;;;17.54;42.66;97263.56;5044329;28;20055;-65
2022/10/04 12:54:21;;;;;;;2.72;2.05;;;;;;;17.45;42.54;97259.63;5042099;28;20166;-61
2022/10/04 12:57:03;;;;;;;2.67;2.13;;;;;;;17.32;43.00;97258.47;5044668;28;20052;-65
2022/10/04 12:59:29;;;;;;;4.72;2.22;;;;;;;17.20;43.21;97270.13;5025103;28;20088;-68
2022/10/04 13:02:08;;;;;;;2.33;2.13;;;;;;;17.09;43.28;97258.16;5042811;28;20105;-59
2022/10/04 13:04:35;;;;;;;4.75;2.67;;;;;;;17.22;43.31;97262.09;5050297;28;20607;-65
2022/10/04 13:07:26;;;;;;;2.95;2.58;;;;;;;17.43;43.37;97262.78;5061954;28;20147;-65